Hurricane Symbol View the latest observations near Atlantic Tropical Storm Alberto.

Station VCAF1 - 8723970 - Vaca Key, FL Image indicating link to RSS feed of recent meteorological observations for station VCAF1


Conditions at VCAF1 as of
(5:30 am EDT)
0930 GMT on 06/20/2024:
     

Click on the graph icon in the table below to see a time series plot of the last five days of that observation.

5-day plot - Wind Direction Wind Direction (WDIR): E ( 90 deg true )
5-day plot - Wind Speed Wind Speed (WSPD): 7.0 kts
5-day plot - Wind Gust Wind Gust (GST): 12.0 kts
5-day plot - Air Temperature Air Temperature (ATMP): 79.2 °F
5-day plot - Water Temperature Water Temperature (WTMP): 84.9 °F
5-day plot - Wind Speed at 10 Meters Wind Speed at 10 meters (WSPD10M): 7.8 kts
5-day plot - Wind Speed at 20 Meters Wind Speed at 20 meters (WSPD20M): 7.8 kts
5-day plot -  Wind Speed, Wind Gust and Atmospheric Pressure Combined plot of Wind Speed, Gust, and Air Pressure
NOS Water Level Observation Network Water Level
Previous observations
TIME
(EDT)
5-day plot - Wind Direction
WDIR
 
5-day plot - Wind Speed
WSPD
kts
5-day plot - Wind Gust
GST
kts
5-day plot - Wave Height
WVHT
ft
5-day plot - Dominant Wave Period
DPD
sec
5-day plot - Average Wave Period
APD
sec
5-day plot - Mean Wave Direction
MWD
 
5-day plot - Atmospheric Pressure
PRES
in
5-day plot - Pressure Tendency
PTDY
in
5-day plot - Air Temperature
ATMP
°F
5-day plot - Water Temperature
WTMP
°F
5-day plot - Dew Point
DEWP
°F
5-day plot - Salinity
SAL
psu
5-day plot - Visibility
VIS
nmi
5-day plot - Tide (above MLLW)
TIDE
ft
2024-06-20 05:24 am E 4.1 6.0------ 79.7 84.9----
2024-06-20 05:18 am SE 2.9 6.0------ 78.8 84.9----
2024-06-20 05:12 amSSE 4.1 15.0------ 78.1 84.9----
2024-06-20 05:06 amSSE 13.0 19.0------ 77.0 84.9----
2024-06-20 05:00 amSSE 8.9 13.0------ 77.7 85.1----
2024-06-20 04:54 amSSE 12.0 19.0------ 80.4 85.1----
2024-06-20 04:48 amESE 8.0 12.0------ 81.9 85.1----
2024-06-20 04:42 amESE 5.1 9.9------ 83.3 85.1----
2024-06-20 04:36 am E 5.1 9.9------ 83.3 85.1----
2024-06-20 04:30 amESE 6.0 11.1------ 83.5 85.1----
2024-06-20 04:24 amESE 4.1 9.9------ 83.5 85.1----
2024-06-20 04:18 am E 5.1 8.0------ 83.5 85.1----
2024-06-20 04:12 amESE 5.1 9.9------ 83.5 85.1----
2024-06-20 04:06 am E 7.0 11.1------ 83.5 85.1----
2024-06-20 04:00 am E 5.1 9.9------ 83.5 85.1----
2024-06-20 03:54 amESE 5.1 12.0------ 83.5 85.1----
2024-06-20 03:48 amESE 7.0 13.0------ 83.5 85.1----
2024-06-20 03:42 amESE 5.1 9.9------ 83.3 85.1----
2024-06-20 03:36 am E 5.1 8.0------ 83.3 85.1----
2024-06-20 03:30 am E 6.0 9.9------ 83.3 85.1----
2024-06-20 03:24 am E 6.0 8.9------ 83.1 85.1----
2024-06-20 03:18 am E 6.0 9.9------ 83.1 85.1----
2024-06-20 03:12 am E 7.0 9.9------ 83.1 85.1----
2024-06-20 03:06 am E 5.1 12.0------ 82.9 85.1----
2024-06-20 03:00 am E 5.1 11.1------ 83.1 85.1----
2024-06-20 02:54 am E 6.0 8.9------ 82.9 85.1----
2024-06-20 02:48 am E 5.1 8.9------ 82.9 85.1----
2024-06-20 02:42 am E 6.0 11.1------ 82.9 85.3----
2024-06-20 02:36 am E 5.1 11.1------ 82.9 85.3----
2024-06-20 02:30 am E 8.0 13.0------ 83.1 85.3----
2024-06-20 02:24 am E 8.0 13.0------ 83.1 85.3----
2024-06-20 02:18 am E 8.9 13.0------ 83.3 85.3----
2024-06-20 02:12 am E 8.9 12.0------ 83.1 85.3----
2024-06-20 02:06 am E 8.0 13.0------ 83.1 85.5----
2024-06-20 02:00 am E 8.9 11.1------ 83.3 85.5----
2024-06-20 01:54 am E 8.9 13.0------ 83.3 85.5----
2024-06-20 01:48 am E 8.0 11.1------ 83.1 85.5----
2024-06-20 01:42 am E 7.0 13.0------ 83.1 85.5----
2024-06-20 01:36 am E 8.0 12.0------ 83.1 85.5----
2024-06-20 01:30 am E 8.0 13.0------ 83.1 85.5----
2024-06-20 01:24 am E 8.9 13.0------ 83.1 85.5----
2024-06-20 01:18 am E 8.0 14.0------ 83.3 85.5----
2024-06-20 01:12 am E 9.9 15.9------ 83.1 85.5----
2024-06-20 01:06 am E 8.9 13.0------ 83.3 85.3----
2024-06-20 01:00 am E 11.1 15.0------ 83.3 85.3----
2024-06-20 12:54 am E 11.1 12.0------ 83.1 85.3----
2024-06-20 12:48 am E 9.9 15.0------ 83.1 85.3----
2024-06-20 12:42 am E 9.9 15.9------ 83.1 85.3----
2024-06-20 12:36 am E 9.9 14.0------ 83.1 85.5----
2024-06-20 12:30 am E 8.9 14.0------ 83.1 85.5----
2024-06-20 12:24 am E 8.0 13.0------ 82.9 85.5----
2024-06-20 12:18 am E 11.1 13.0------ 83.1 85.5----
2024-06-20 12:12 am E 12.0 15.9------ 83.3 85.5----
2024-06-20 12:06 am E 9.9 13.0------ 83.3 85.5----
2024-06-20 12:00 am E 9.9 13.0------ 83.3 85.5----
2024-06-19 11:54 pmENE 12.0 14.0------ 83.5 85.6----
2024-06-19 11:48 pmENE 8.9 13.0------ 83.1 85.6----
2024-06-19 11:42 pm E 8.9 12.0------ 83.1 85.6----
2024-06-19 11:36 pm E 8.9 14.0------ 83.1 85.6----
2024-06-19 11:30 pm E 11.1 15.9------ 83.1 85.6----
2024-06-19 11:24 pm E 8.9 13.0------ 83.1 85.6----
2024-06-19 11:18 pm E 9.9 13.0------ 83.3 85.6----
2024-06-19 11:12 pm E 11.1 15.9------ 83.1 85.6----
2024-06-19 11:06 pm E 9.9 14.0------ 83.3 85.6----
2024-06-19 11:00 pm E 12.0 14.0------ 83.3 85.6----
2024-06-19 10:54 pm E 9.9 14.0------ 83.3 85.8----
2024-06-19 10:48 pm E 8.9 13.0------ 83.5 85.8----
2024-06-19 10:42 pm E 8.0 12.0------ 83.3 85.8----
2024-06-19 10:36 pm E 8.0 9.9------ 83.3 85.8----
2024-06-19 10:30 pm E 8.0 11.1------ 83.5 85.8----
2024-06-19 10:24 pm E 7.0 9.9------ 83.5 85.8----
2024-06-19 10:18 pm E 7.0 12.0------ 83.5 85.8----
2024-06-19 10:12 pm E 8.9 13.0------ 83.5 86.0----
2024-06-19 10:06 pm E 8.9 12.0------ 83.5 86.0----
2024-06-19 10:00 pm E 8.9 15.0------ 83.7 86.0----
2024-06-19 09:54 pm E 8.0 15.0------ 83.7 86.0----
2024-06-19 09:48 pm E 13.0 18.1------ 83.7 86.0----
2024-06-19 09:42 pm E 8.9 15.9------ 83.5 86.0----
2024-06-19 09:36 pm E 9.9 14.0------ 83.7 86.0----
2024-06-19 09:30 pm E 9.9 13.0------ 83.7 86.0----
2024-06-19 09:24 pm E 12.0 15.9------ 83.7 86.0----
2024-06-19 09:18 pm E 12.0 15.0------ 83.7 86.0----
2024-06-19 09:12 pm E 9.9 17.1------ 83.8 86.2----
2024-06-19 09:06 pm E 12.0 17.1------ 83.8 86.2----
2024-06-19 09:00 pm E 11.1 14.0------ 83.8 86.2----
2024-06-19 08:54 pm E 7.0 14.0------ 83.7 86.2----
2024-06-19 08:48 pm E 11.1 15.0------ 83.7 86.2----
2024-06-19 08:42 pm E 11.1 15.9------ 83.7 86.2----
2024-06-19 08:36 pm E 11.1 17.1------ 83.7 86.2----
2024-06-19 08:30 pm E 11.1 15.9------ 83.8 86.4----
2024-06-19 08:24 pm E 11.1 17.1------ 83.8 86.4----
2024-06-19 08:18 pm E 13.0 19.0------ 83.8 86.4----
2024-06-19 08:12 pm E 8.0 14.0------ 83.8 86.4----
2024-06-19 08:06 pm E 8.0 15.9------ 83.8 86.4----
2024-06-19 08:00 pm E 12.0 19.0------ 84.0 86.5----
2024-06-19 07:54 pm E 13.0 18.1------ 84.0 86.5----
2024-06-19 07:48 pm E 8.9 15.0------ 84.0 86.5----
2024-06-19 07:42 pm E 8.9 15.0------ 84.2 86.5----
2024-06-19 07:36 pm E 11.1 17.1------ 84.4 86.5----
2024-06-19 07:30 pm E 9.9 15.9------ 84.4 86.5----
2024-06-19 07:24 pm E 8.0 13.0------ 84.6 86.7----
2024-06-19 07:18 pm E 8.0 15.0------ 84.6 86.7----
2024-06-19 07:12 pm E 9.9 15.9------ 84.7 86.7----
2024-06-19 07:06 pm E 15.0 19.0------ 84.6 86.7----
2024-06-19 07:00 pm E 12.0 18.1------ 84.9 86.9----
2024-06-19 06:54 pm E 11.1 14.0------ 84.9 86.9----
2024-06-19 06:48 pm E 11.1 15.0------- 86.9----
2024-06-19 06:42 pm E 8.9 18.1------- 86.9----
2024-06-19 06:36 pm E 13.0 15.9------- 86.9----
2024-06-19 06:30 pm E 13.0 18.1------ 84.9 86.9----
2024-06-19 06:24 pm E 11.1 17.1------ 85.1 86.9----
2024-06-19 06:18 pm E 11.1 19.0------ 85.1-----
2024-06-19 06:12 pm E 11.1 18.1------ 84.9-----
2024-06-19 06:06 pm E 9.9 17.1------ 85.1-----
2024-06-19 06:00 pm E 11.1 15.0------ 84.9 86.7----
2024-06-19 05:54 pm E 12.0 17.1------ 84.6 86.7----
2024-06-19 05:48 pm E 12.0 17.1------ 84.9 86.7----
2024-06-19 05:42 pm E 11.1 19.0------ 84.6 86.7----
2024-06-19 05:36 pm E 8.0 20.0------ 85.5 86.7----
2024-06-19 05:30 pm E 8.9 14.0------ 84.7 86.7----
2024-06-19 05:24 pm E 12.0 18.1------ 84.9 86.7----
2024-06-19 05:18 pm E 12.0 20.0------ 84.7 86.7----
2024-06-19 05:12 pm E 13.0 19.0------ 84.7 86.7----
2024-06-19 05:06 pm E 15.0 20.0------ 84.6 86.7----
2024-06-19 05:00 pm E 9.9 15.9------ 84.9 86.7----
2024-06-19 04:54 pm E 13.0 19.0------ 84.9 86.7----
2024-06-19 04:48 pm E 11.1 20.0------ 84.9 86.7----
2024-06-19 04:42 pm E 11.1 17.1------ 85.1 86.7----
2024-06-19 04:36 pm E 13.0 19.0------ 84.9 86.7----
2024-06-19 04:30 pm E 8.9 15.0------ 85.3 86.7----
2024-06-19 04:24 pm E 12.0 18.1------ 85.1 86.7----
2024-06-19 04:18 pm E 13.0 21.0------ 84.9 86.7----
2024-06-19 04:12 pm E 11.1 19.0------ 85.3 86.7----
2024-06-19 04:06 pm E 11.1 18.1------ 85.3 86.7----
2024-06-19 04:00 pm E 8.9 18.1------ 85.5 86.7----
2024-06-19 03:54 pm E 9.9 18.1------ 85.3 86.7----
2024-06-19 03:48 pm E 8.9 19.0------ 85.5 86.7----
2024-06-19 03:42 pm E 11.1 18.1------ 85.3 86.7----
2024-06-19 03:36 pm E 8.9 18.1------ 85.6 86.7----
2024-06-19 03:30 pm E 13.0 20.0------ 85.3 86.7----
2024-06-19 03:24 pm E 11.1 17.1------ 86.0 86.7----
2024-06-19 03:18 pm E 8.9 19.0------ 86.2 86.5----
2024-06-19 03:12 pm E 11.1 15.9------ 85.8 86.5----
2024-06-19 03:06 pm E 8.9 21.0------ 86.5 86.5----
2024-06-19 03:00 pm E 12.0 18.1------ 85.8 86.5----
2024-06-19 02:54 pm E 12.0 17.1------ 86.2 86.4----
2024-06-19 02:48 pm E 9.9 19.0------ 86.5 86.4----
2024-06-19 02:42 pm E 11.1 18.1------ 86.7 86.4----
2024-06-19 02:36 pm E 15.0 19.0------ 85.6 86.4----
2024-06-19 02:30 pm E 13.0 21.0------ 85.5 86.2----
2024-06-19 02:24 pm E 9.9 19.0------ 86.0 86.2----
2024-06-19 02:18 pm E 12.0 21.0------ 86.0 86.2----
2024-06-19 02:12 pm E 12.0 19.0------ 85.6 86.0----
2024-06-19 02:06 pm E 8.0 15.9------ 86.9 86.0----
2024-06-19 02:00 pm E 6.0 17.1------ 86.7 85.8----
2024-06-19 01:54 pm E 11.1 18.1------ 86.4 85.8----
2024-06-19 01:48 pm E 12.0 17.1------ 86.2 85.8----
2024-06-19 01:42 pmESE 8.0 15.9------ 86.7 85.6----
2024-06-19 01:36 pm E 8.9 19.0------ 86.5 85.6----
2024-06-19 01:30 pm E 8.9 15.0------ 86.5 85.6----
2024-06-19 01:24 pm E 11.1 17.1------ 86.0 85.5----
2024-06-19 01:18 pmESE 8.0 17.1------ 86.4 85.5----
2024-06-19 01:12 pm E 8.9 18.1------ 86.2 85.5----
2024-06-19 01:06 pm E 9.9 18.1------ 86.2 85.3----
2024-06-19 01:00 pm E 11.1 17.1------ 85.8 85.3----
2024-06-19 12:54 pm E 7.0 19.0------ 86.5 85.3----
2024-06-19 12:48 pm E 9.9 17.1------ 86.0 85.1----
2024-06-19 12:42 pm E 12.0 18.1------ 85.6 85.1----
2024-06-19 12:36 pm E 8.9 14.0------ 86.4 85.1----
2024-06-19 12:30 pm E 9.9 19.0------ 86.2 85.1----
2024-06-19 12:24 pm E 8.9 15.0------ 86.2 85.1----
2024-06-19 12:18 pm E 8.9 15.0------ 86.4 85.1----
2024-06-19 12:12 pm E 8.9 13.0------ 86.0 84.9----
2024-06-19 12:06 pm E 8.0 14.0------ 86.2 84.9----
2024-06-19 12:00 pmESE 8.9 15.0------ 86.4 84.9----
2024-06-19 11:54 am E 8.0 14.0------ 86.0 84.9----
2024-06-19 11:48 am E 9.9 14.0------ 86.2 84.9----
2024-06-19 11:42 am E 8.0 14.0------ 86.2 84.9----
2024-06-19 11:36 am E 8.0 14.0------ 86.2 84.9----
2024-06-19 11:30 am E 9.9 15.0------ 86.0 84.9----
2024-06-19 11:24 am E 8.9 17.1------ 86.2 84.9----
2024-06-19 11:18 amESE 8.0 18.1------ 86.2 84.9----
2024-06-19 11:12 am E 8.9 17.1------ 85.8 84.7----
2024-06-19 11:06 am E 8.0 15.9------ 86.0 84.7----
2024-06-19 11:00 am E 8.9 14.0------ 85.6 84.7----
2024-06-19 10:54 amESE 6.0 13.0------ 85.3 84.7----
2024-06-19 10:48 am E 5.1 12.0------ 84.9 84.7----
2024-06-19 10:42 amESE 8.0 15.0------ 83.7 84.7----
2024-06-19 10:36 amESE 8.9 14.0------ 82.8 84.7----
2024-06-19 10:30 amESE 6.0 13.0------ 82.8 84.7----
2024-06-19 10:24 am E 7.0 8.9------ 82.2 84.7----
2024-06-19 10:18 amESE 7.0 11.1------ 82.2 84.6----
2024-06-19 10:12 amESE 5.1 9.9------ 81.7 84.6----
2024-06-19 10:06 amESE 4.1 12.0------ 81.1 84.6----
2024-06-19 10:00 am E 8.9 13.0------ 81.1 84.6----
2024-06-19 09:54 am E 9.9 14.0------ 80.6 84.6----
2024-06-19 09:48 amESE 8.0 13.0------ 82.4 84.6----
2024-06-19 09:42 amESE 8.0 15.0------ 82.6 84.6----
2024-06-19 09:36 am SE 8.0 14.0------ 82.9 84.6----
2024-06-19 09:30 amESE 7.0 19.0------ 84.2 84.6----
2024-06-19 09:24 am E 8.0 14.0------ 84.2 84.7----
2024-06-19 09:18 am E 7.0 13.0------ 85.5 84.6----
2024-06-19 09:12 am E 8.9 15.0------ 84.7 84.6----
2024-06-19 09:06 amESE 6.0 11.1------ 84.4 84.6----
2024-06-19 09:00 amESE 5.1 9.9------ 84.4 84.6----
2024-06-19 08:54 amESE 6.0 12.0------ 83.7 84.6----
2024-06-19 08:48 amESE 8.0 15.0------ 82.8 84.6----
2024-06-19 08:42 am E 8.0 14.0------ 83.1 84.6----
2024-06-19 08:36 am E 8.0 15.0------ 83.3 84.6----
2024-06-19 08:30 amESE 7.0 13.0------ 84.0 84.6----
2024-06-19 08:24 amESE 6.0 11.1------ 84.0 84.6----
2024-06-19 08:18 amESE 7.0 13.0------ 83.7 84.6----
2024-06-19 08:12 amESE 9.9 15.0------ 83.5 84.6----
2024-06-19 08:06 amESE 6.0 11.1------ 82.8 84.6----
2024-06-19 08:00 amESE 5.1 11.1------ 82.0 84.6----
2024-06-19 07:54 am E 7.0 12.0------ 81.7 84.6----
2024-06-19 07:48 am E 6.0 12.0------- 84.7----
2024-06-19 07:42 amESE 7.0 12.0------- 84.7----
2024-06-19 07:36 am SE 5.1 13.0------- 84.7----
2024-06-19 07:30 amESE 5.1 12.0------ 81.9 84.7----
2024-06-19 07:24 am SE 6.0 12.0------ 82.0 84.7----
2024-06-19 07:18 amESE 9.9 15.0------ 82.8 84.9----
2024-06-19 07:12 am E 6.0 13.0------ 82.4 84.7----
2024-06-19 07:06 am E 8.9 15.9------ 82.4 84.9----
2024-06-19 07:00 am E 4.1 8.0------ 82.2 84.9----
2024-06-19 06:54 am E 2.9 7.0------ 81.7 84.9----
2024-06-19 06:48 am E 5.1 12.0------ 81.1 84.9----
2024-06-19 06:42 am E 8.0 14.0------ 81.5 84.9----
2024-06-19 06:36 amESE 8.9 15.9------ 82.4 85.1----
2024-06-19 06:30 am E 5.1 8.0------ 83.1 85.1----
2024-06-19 06:24 am E 7.0 12.0------ 83.1 85.1----
2024-06-19 06:18 amESE 5.1 14.0------ 83.1 85.1----
2024-06-19 06:12 am E 5.1 9.9------ 83.5 85.1----
2024-06-19 06:06 am E 6.0 11.1------ 83.5 85.1----
2024-06-19 06:00 amESE 6.0 12.0------ 83.5 85.1----
2024-06-19 05:54 amESE 6.0 9.9------ 83.5 85.3----